| Date | Time | Temp. (oF) | Dew Point (oF) | Rel. Hum. (%) | Press. (in.) | Wind Dir. | Wind Speed (mph) | Hourly Rainfall (in.) |
|
|---|---|---|---|---|---|---|---|---|---|
| 1 | 12/31 | 00:00 | 29 | 22 | 77 | 30.29 | SW | 4 | 0.00 |
| 2 | 12/30 | 23:00 | 30 | 23 | 75 | 30.29 | WSW | 6 | 0.00 |
| 3 | 12/30 | 22:00 | 32 | 24 | 74 | 30.28 | NW | 6 | 0.00 |
| 4 | 12/30 | 21:00 | 32 | 24 | 75 | 30.27 | SW | 3 | 0.00 |
| 5 | 12/30 | 20:00 | 31 | 25 | 79 | 30.27 | WSW | 3 | 0.00 |
| 6 | 12/30 | 19:00 | 31 | 25 | 79 | 30.27 | WSW | 5 | 0.00 |
| 7 | 12/30 | 18:00 | 32 | 25 | 78 | 30.25 | N | 8 | 0.00 |
| 8 | 12/30 | 17:00 | 33 | 25 | 73 | 30.22 | WSW | 14 | 0.00 |
| 9 | 12/30 | 16:00 | 34 | 23 | 66 | 30.18 | NW | 9 | 0.00 |
| 10 | 12/30 | 15:00 | 35 | 24 | 65 | 30.15 | NW | 19 | 0.00 |
| 11 | 12/30 | 14:00 | 34 | 22 | 62 | 30.12 | W | 28 | 0.00 |
| 12 | 12/30 | 13:00 | 35 | 24 | 64 | 30.12 | N | 12 | 0.00 |
| 13 | 12/30 | 12:00 | 34 | 24 | 68 | 30.12 | NW | 13 | 0.00 |
| 14 | 12/30 | 11:00 | 32 | 25 | 78 | 30.13 | WSW | 15 | 0.00 |
| 15 | 12/30 | 10:00 | 33 | 22 | 65 | 30.11 | NW | 12 | 0.00 |
| 16 | 12/30 | 09:00 | 32 | 22 | 67 | 30.07 | WNW | 13 | 0.00 |
| 17 | 12/30 | 08:00 | 30 | 22 | 73 | 30.02 | NW | 10 | 0.00 |
| 18 | 12/30 | 07:00 | 29 | 24 | 83 | 29.99 | NW | 7 | 0.00 |
| 19 | 12/30 | 06:00 | 29 | 22 | 77 | 29.95 | WNW | 5 | 0.00 |
| 20 | 12/30 | 05:00 | 30 | 24 | 79 | 29.92 | W | 8 | 0.00 |
| 21 | 12/30 | 04:00 | 31 | 24 | 78 | 29.90 | WNW | 7 | 0.00 |
| 22 | 12/30 | 03:00 | 32 | 27 | 82 | 29.88 | W | 13 | 0.00 |
| 23 | 12/30 | 02:00 | 32 | 26 | 81 | 29.84 | W | 4 | 0.00 |
| 24 | 12/30 | 01:00 | 32 | 27 | 83 | 29.80 | W | 11 | 0.00 |